Time;durP1;ratioP1;P1;durP2;ratioP2;P2;SDS_P1;SDS_P2;PMS_P1;PMS_P2;Temp;Humidity;BMP_temperature;BMP_pressure;BME280_temperature;BME280_humidity;BME280_pressure;Samples;Min_cycle;Max_cycle;Signal;HPM_P1;HPM_P2
2022/07/14 00:00:01;;;;;;;;;;;;;;;24.50;48.26;101000.13;4977127;28;6950;-83
2022/07/14 00:02:27;;;;;;;;;;;;;;;24.43;48.31;100982.66;4947969;28;7108;-83
2022/07/14 00:04:53;;;;;;;;;;;;;;;24.37;48.70;100991.41;4974719;28;6772;-83
2022/07/14 00:07:18;;;;;;;;;;;;;;;24.36;48.32;100996.66;4957783;28;6977;-83
2022/07/14 00:09:44;;;;;;;;;;;;;;;24.33;48.53;100999.25;4961890;28;8364;-83
2022/07/14 00:12:09;;;;;;;;;;;;;;;24.30;48.30;100989.69;4974917;28;7353;-83
2022/07/14 00:14:35;;;;;;;;;;;;;;;24.25;48.89;100978.31;4936412;28;6993;-83
2022/07/14 00:17:01;;;;;;;;;;;;;;;24.20;48.89;100988.78;4969647;28;6967;-83
2022/07/14 00:19:27;;;;;;;;;;;;;;;24.20;49.07;100999.25;4949485;28;7044;-83
2022/07/14 00:21:53;;;;;;;;;;;;;;;24.18;48.96;101001.00;4973371;28;7036;-83
2022/07/14 00:24:19;;;;;;;;;;;;;;;24.12;49.15;100991.41;4933409;28;8421;-83
2022/07/14 00:26:44;;;;;;;;;;;;;;;24.07;48.94;100984.41;4961485;28;8629;-83
2022/07/14 00:29:10;;;;;;;;;;;;;;;24.02;48.98;100983.50;4978532;28;6965;-83
2022/07/14 00:31:36;;;;;;;;;;;;;;;24.02;49.09;100967.78;4966615;28;7972;-83
2022/07/14 00:34:02;;;;;;;;;;;;;;;23.97;49.26;100962.53;4963193;28;7192;-83
2022/07/14 00:36:27;;;;;;;;;;;;;;;23.93;49.29;100964.28;4937649;28;7047;-83
2022/07/14 00:38:54;;;;;;;;;;;;;;;23.89;49.40;100959.03;4945966;28;8395;-83
2022/07/14 00:41:20;;;;;;;;;;;;;;;23.85;49.52;100972.13;4935402;28;7307;-83
2022/07/14 00:43:46;;;;;;;;;;;;;;;23.83;49.74;100978.22;4961053;28;7265;-83
2022/07/14 00:46:12;;;;;;;;;;;;;;;23.78;49.47;100974.75;4973207;28;7194;-83
2022/07/14 00:48:37;;;;;;;;;;;;;;;23.77;49.53;100968.63;4936291;28;8435;-83
2022/07/14 00:51:03;;;;;;;;;;;;;;;23.76;49.42;100979.06;4964350;28;6991;-83
2022/07/14 00:53:29;;;;;;;;;;;;;;;23.73;49.89;100982.56;4950637;28;6982;-83
2022/07/14 00:55:55;;;;;;;;;;;;;;;23.67;49.86;100986.06;4973540;28;6950;-83
2022/07/14 00:58:21;;;;;;;;;;;;;;;23.63;50.05;100973.81;4962568;28;8589;-83
2022/07/14 01:00:46;;;;;;;;;;;;;;;23.57;50.30;100969.44;4933617;28;6955;-83
2022/07/14 01:03:13;;;;;;;;;;;;;;;23.52;50.21;100968.56;4961515;28;7265;-83
2022/07/14 01:05:38;;;;;;;;;;;;;;;23.45;50.43;100961.56;4957384;28;7274;-83
2022/07/14 01:08:04;;;;;;;;;;;;;;;23.39;50.44;100962.41;4929784;28;7198;-83
2022/07/14 01:10:30;;;;;;;;;;;;;;;23.34;50.47;100969.34;4964766;28;6991;-83
2022/07/14 01:13:00;;;;;;;;;;;;;;;23.30;50.60;100978.06;4953944;28;7356;-83
2022/07/14 01:15:27;;;;;;;;;;;;;;;23.28;50.73;100979.81;4965264;28;6995;-83
2022/07/14 01:17:53;;;;;;;;;;;;;;;23.26;50.74;100978.88;4973771;28;7235;-83
2022/07/14 01:20:19;;;;;;;;;;;;;;;23.24;50.58;100980.63;4974165;28;7243;-83
2022/07/14 01:22:49;;;;;;;;;;;;;;;23.19;50.95;100979.72;4934479;28;7232;-83
2022/07/14 01:25:18;;;;;;;;;;;;;;;23.20;51.15;100997.16;4974200;28;8117;-83
2022/07/14 01:27:44;;;;;;;;;;;;;;;23.19;51.12;101008.50;4974095;28;6948;-83
2022/07/14 01:30:10;;;;;;;;;;;;;;;23.20;50.94;101015.47;4949754;28;7105;-83
2022/07/14 01:32:37;;;;;;;;;;;;;;;23.20;50.74;101008.47;4962152;28;8446;-83
2022/07/14 01:35:05;;;;;;;;;;;;;;;23.20;51.17;101005.00;4965655;28;8837;-83
2022/07/14 01:37:32;;;;;;;;;;;;;;;23.17;50.81;101005.84;4936090;28;8572;-83
2022/07/14 01:39:57;;;;;;;;;;;;;;;23.13;51.01;100997.13;4929965;28;6959;-83
2022/07/14 01:42:23;;;;;;;;;;;;;;;23.09;51.33;100994.47;4960249;28;6971;-83
2022/07/14 01:44:49;;;;;;;;;;;;;;;23.05;51.13;100982.28;4957118;28;6952;-83
2022/07/14 01:47:14;;;;;;;;;;;;;;;23.05;51.03;100985.75;4934002;28;8392;-83
2022/07/14 01:49:40;;;;;;;;;;;;;;;23.05;51.08;100969.22;4974553;28;8456;-83
2022/07/14 01:52:06;;;;;;;;;;;;;;;23.01;51.21;100960.47;4949274;28;7017;-83
2022/07/14 01:54:32;;;;;;;;;;;;;;;22.98;50.87;100952.59;4980491;28;7144;-83
2022/07/14 01:56:57;;;;;;;;;;;;;;;22.96;51.38;100946.50;4929335;28;8742;-83
2022/07/14 01:59:23;;;;;;;;;;;;;;;22.89;51.54;100951.69;4959595;28;6969;-83
2022/07/14 02:01:49;;;;;;;;;;;;;;;22.87;51.48;100948.19;4958972;28;7321;-83
2022/07/14 02:04:18;;;;;;;;;;;;;;;22.86;51.41;100949.06;4966728;28;7015;-83
2022/07/14 02:06:52;;;;;;;;;;;;;;;22.84;51.71;100956.00;4958109;28;7216;-83
2022/07/14 02:09:20;;;;;;;;;;;;;;;22.80;51.53;100954.25;4948948;28;7192;-83
2022/07/14 02:14:33;;;;;;;;;;;;;;;22.77;51.62;100943.78;4971703;28;6792;-83
2022/07/14 02:16:59;;;;;;;;;;;;;;;22.75;52.36;100942.88;4958477;28;7210;-83
2022/07/14 02:19:25;;;;;;;;;;;;;;;22.74;51.90;100962.06;4947475;28;7226;-83
2022/07/14 02:21:54;;;;;;;;;;;;;;;22.75;51.86;100963.78;4972262;28;7219;-83
2022/07/14 02:24:21;;;;;;;;;;;;;;;22.76;51.89;100960.31;4939160;28;8805;-83
2022/07/14 02:26:50;;;;;;;;;;;;;;;22.76;51.61;100965.53;4949289;28;7446;-83
2022/07/14 02:29:16;;;;;;;;;;;;;;;22.78;51.74;100960.34;4979647;28;6968;-83
2022/07/14 02:31:44;;;;;;;;;;;;;;;22.78;51.89;100960.34;4978703;28;6968;-83
2022/07/14 02:34:10;;;;;;;;;;;;;;;22.79;51.55;100951.63;4946085;28;6956;-83
2022/07/14 02:36:36;;;;;;;;;;;;;;;22.77;51.53;100946.38;4978575;28;7618;-83
2022/07/14 02:39:03;;;;;;;;;;;;;;;22.75;51.29;100946.41;4979590;28;6999;-83
2022/07/14 02:41:29;;;;;;;;;;;;;;;22.74;51.49;100949.88;4952622;28;7285;-83
2022/07/14 02:43:54;;;;;;;;;;;;;;;22.73;51.49;100949.84;4966994;28;8656;-84
2022/07/14 02:46:20;;;;;;;;;;;;;;;22.72;51.71;100948.97;4953923;28;7152;-84
2022/07/14 02:48:46;;;;;;;;;;;;;;;22.70;51.65;100944.63;4970621;28;7210;-84
2022/07/14 02:51:12;;;;;;;;;;;;;;;22.66;51.53;100943.72;4963630;28;8714;-84
2022/07/14 02:53:37;;;;;;;;;;;;;;;22.63;51.38;100942.81;4959991;28;7146;-84
2022/07/14 02:56:06;;;;;;;;;;;;;;;22.59;51.47;100948.00;4962763;28;6945;-84
2022/07/14 02:58:32;;;;;;;;;;;;;;;22.55;51.87;100946.25;4946784;28;6987;-83
2022/07/14 03:00:58;;;;;;;;;;;;;;;22.51;52.19;100927.94;4963559;28;7561;-83
2022/07/14 03:03:24;;;;;;;;;;;;;;;22.46;51.92;100951.38;4976870;28;6979;-83
2022/07/14 03:05:50;;;;;;;;;;;;;;;22.43;52.44;100953.97;4953307;28;7203;-83
2022/07/14 03:08:17;;;;;;;;;;;;;;;22.40;52.42;100949.59;4965293;28;7393;-82
2022/07/14 03:10:43;;;;;;;;;;;;;;;22.37;52.52;100946.06;4965373;28;8418;-83
2022/07/14 03:13:10;;;;;;;;;;;;;;;22.32;52.70;100943.44;4933295;28;9517;-83
2022/07/14 03:15:36;;;;;;;;;;;;;;;22.26;53.01;100936.44;4947110;28;7193;-83
2022/07/14 03:18:03;;;;;;;;;;;;;;;22.25;52.60;100926.84;4940619;28;7202;-83
2022/07/14 03:20:29;;;;;;;;;;;;;;;22.22;52.75;100934.66;4980899;28;7114;-82
2022/07/14 03:22:55;;;;;;;;;;;;;;;22.18;53.42;100936.38;4983484;28;7884;-83
2022/07/14 03:25:21;;;;;;;;;;;;;;;22.14;53.18;100938.94;4952690;28;6982;-83
2022/07/14 03:27:47;;;;;;;;;;;;;;;22.11;53.30;100926.72;4970270;28;7883;-83
2022/07/14 03:30:14;;;;;;;;;;;;;;;22.05;53.38;100924.94;4957426;28;6771;-83
2022/07/14 03:32:40;;;;;;;;;;;;;;;22.03;53.32;100917.97;4967954;28;12959;-83
2022/07/14 03:35:07;;;;;;;;;;;;;;;22.00;53.29;100924.00;4978725;28;7205;-83
2022/07/14 03:37:36;;;;;;;;;;;;;;;21.97;53.52;100931.81;4954490;28;7106;-82
2022/07/14 03:40:07;;;;;;;;;;;;;;;21.96;53.71;100934.41;4956605;28;6977;-82
2022/07/14 03:42:33;;;;;;;;;;;;;;;21.93;53.64;100940.50;4946950;28;6870;-79
2022/07/14 03:44:59;;;;;;;;;;;;;;;21.92;53.50;100936.13;4934706;28;7281;-79
2022/07/14 03:47:24;;;;;;;;;;;;;;;21.93;53.79;100930.06;4941580;28;6997;-80
2022/07/14 03:49:50;;;;;;;;;;;;;;;21.90;53.72;100938.72;4956805;28;7103;-78
2022/07/14 03:52:16;;;;;;;;;;;;;;;21.86;53.79;100936.94;4971028;28;7844;-79
2022/07/14 03:54:46;;;;;;;;;;;;;;;21.83;53.99;100933.44;4971865;28;10826;-78
2022/07/14 03:57:13;;;;;;;;;;;;;;;21.82;53.88;100935.16;4944017;28;7069;-78
2022/07/14 03:59:41;;;;;;;;;;;;;;;21.84;54.13;100951.69;4953414;28;6988;-78
2022/07/14 04:02:11;;;;;;;;;;;;;;;21.87;53.97;100953.47;4965510;28;7803;-79
2022/07/14 04:04:38;;;;;;;;;;;;;;;21.89;53.87;100959.56;4941581;28;7040;-78
2022/07/14 04:07:04;;;;;;;;;;;;;;;21.89;53.80;100949.13;4972284;28;8719;-78
2022/07/14 04:09:31;;;;;;;;;;;;;;;21.90;53.73;100948.28;4950418;28;7284;-78
2022/07/14 04:11:57;;;;;;;;;;;;;;;21.90;54.08;100956.09;4935459;28;8638;-79
2022/07/14 04:14:23;;;;;;;;;;;;;;;21.89;54.21;100950.03;4960941;28;7341;-78
2022/07/14 04:16:51;;;;;;;;;;;;;;;21.90;54.30;100946.56;4980275;28;6869;-78
2022/07/14 04:19:17;;;;;;;;;;;;;;;21.89;54.05;100943.91;4953408;28;7057;-79
2022/07/14 04:21:42;;;;;;;;;;;;;;;21.91;53.78;100942.19;4927312;28;8870;-79
2022/07/14 04:24:08;;;;;;;;;;;;;;;21.90;53.89;100935.22;4964523;28;7121;-79
2022/07/14 04:26:37;;;;;;;;;;;;;;;21.87;54.01;100933.47;4962773;28;6768;-79
2022/07/14 04:29:03;;;;;;;;;;;;;;;21.88;54.03;100935.25;4932578;28;7213;-78
2022/07/14 04:31:29;;;;;;;;;;;;;;;21.86;54.15;100943.91;4948515;28;6991;-78
2022/07/14 04:33:55;;;;;;;;;;;;;;;21.85;53.96;100940.41;4966165;28;7859;-78
2022/07/14 04:36:22;;;;;;;;;;;;;;;21.87;54.23;100948.25;4960868;28;7143;-79
2022/07/14 04:38:47;;;;;;;;;;;;;;;21.86;54.11;100949.13;4965283;28;6859;-78
2022/07/14 04:41:13;;;;;;;;;;;;;;;21.86;53.84;100938.69;4953198;28;9063;-78
2022/07/14 04:43:38;;;;;;;;;;;;;;;21.84;53.73;100949.09;4983975;28;6946;-78
2022/07/14 04:46:05;;;;;;;;;;;;;;;21.82;54.09;100947.31;4952179;28;7215;-78
2022/07/14 04:52:01;;;;;;;;;;;;;;;21.80;54.41;100936.91;4963489;28;7273;-78
2022/07/14 04:54:01;;;;;;;;;;;;;;;21.84;54.28;100936.06;4962620;28;7588;-78
2022/07/14 04:56:27;;;;;;;;;;;;;;;21.88;54.29;100942.19;4978389;28;6930;-78
2022/07/14 04:58:53;;;;;;;;;;;;;;;21.94;54.19;100952.69;4962494;28;6836;-78
2022/07/14 05:01:19;;;;;;;;;;;;;;;21.98;54.28;100949.22;4944604;28;6788;-78
2022/07/14 05:03:44;;;;;;;;;;;;;;;22.03;54.19;100939.72;4974965;28;7109;-78
2022/07/14 05:06:11;;;;;;;;;;;;;;;22.10;54.32;100939.75;4961820;28;6976;-78
2022/07/14 05:08:36;;;;;;;;;;;;;;;22.15;54.25;100933.72;4963599;28;7824;-78
2022/07/14 05:11:06;;;;;;;;;;;;;;;22.22;54.20;100934.66;4932680;28;8864;-78
2022/07/14 05:13:32;;;;;;;;;;;;;;;22.29;54.41;100932.97;4959844;28;8530;-78
2022/07/14 05:15:58;;;;;;;;;;;;;;;22.42;54.48;100929.56;4975967;28;7296;-78
2022/07/14 05:18:24;;;;;;;;;;;;;;;22.52;54.03;100914.91;4931538;28;8045;-78
2022/07/14 05:20:49;;;;;;;;;;;;;;;22.58;53.66;100925.38;4979733;28;6784;-79
2022/07/14 05:23:15;;;;;;;;;;;;;;;22.64;53.16;100934.13;4966685;28;7015;-78
2022/07/14 05:25:43;;;;;;;;;;;;;;;22.69;53.35;100935.00;4964144;28;7274;-78
2022/07/14 05:28:09;;;;;;;;;;;;;;;22.75;53.03;100948.13;4961509;28;6975;-78
2022/07/14 05:30:35;;;;;;;;;;;;;;;22.82;52.98;100955.13;4959667;28;8474;-78
2022/07/14 05:33:01;;;;;;;;;;;;;;;22.93;52.95;100952.56;4979596;28;7209;-78
2022/07/14 05:35:27;;;;;;;;;;;;;;;23.00;52.87;100948.28;4931755;28;7031;-78
2022/07/14 05:37:52;;;;;;;;;;;;;;;23.03;52.37;100943.94;4961474;28;7200;-78
2022/07/14 05:40:18;;;;;;;;;;;;;;;23.03;51.91;100953.50;4979661;28;8469;-79
2022/07/14 05:42:44;;;;;;;;;;;;;;;23.02;52.14;100959.59;4943134;28;7022;-78
2022/07/14 05:45:10;;;;;;;;;;;;;;;22.99;51.81;100957.84;4961859;28;6965;-79
2022/07/14 05:47:35;;;;;;;;;;;;;;;23.00;52.23;100962.19;4964683;28;7278;-78
2022/07/14 05:50:02;;;;;;;;;;;;;;;23.00;51.48;100956.09;4951242;28;6953;-78
2022/07/14 05:52:30;;;;;;;;;;;;;;;22.97;51.42;100950.84;4961036;28;7216;-79
2022/07/14 05:55:00;;;;;;;;;;;;;;;22.92;51.51;100949.97;4950384;28;7020;-78
2022/07/14 05:57:27;;;;;;;;;;;;;;;22.86;52.00;100943.81;4946959;28;7765;-79
2022/07/14 05:59:53;;;;;;;;;;;;;;;22.81;51.65;100950.78;4978873;28;7901;-78
2022/07/14 06:02:18;;;;;;;;;;;;;;;22.78;51.98;100945.50;4942878;28;6780;-77
2022/07/14 06:04:44;;;;;;;;;;;;;;;22.78;51.83;100955.97;4947137;28;7179;-77
2022/07/14 06:07:10;;;;;;;;;;;;;;;22.79;52.00;100949.00;4966388;28;6800;-76
2022/07/14 06:09:38;;;;;;;;;;;;;;;22.81;52.18;100953.41;4977200;28;8649;-77
2022/07/14 06:12:08;;;;;;;;;;;;;;;22.83;52.13;100945.53;4951410;28;7241;-77
2022/07/14 06:14:34;;;;;;;;;;;;;;;22.88;52.50;100944.69;4960614;28;7078;-77
2022/07/14 06:17:00;;;;;;;;;;;;;;;22.96;52.26;100943.88;4975874;28;8648;-77
2022/07/14 06:19:25;;;;;;;;;;;;;;;23.07;52.38;100949.16;4949822;28;6970;-77
2022/07/14 06:21:51;;;;;;;;;;;;;;;23.14;52.33;100946.59;4944728;28;6998;-77
2022/07/14 06:24:16;;;;;;;;;;;;;;;23.25;51.70;100953.59;4941552;28;7258;-77
2022/07/14 06:26:42;;;;;;;;;;;;;;;23.34;51.43;100964.13;4934159;28;6948;-77
2022/07/14 06:29:10;;;;;;;;;;;;;;;23.43;50.96;100966.78;4943147;28;6776;-77
2022/07/14 06:31:36;;;;;;;;;;;;;;;23.52;50.95;100967.69;4932621;28;8193;-77
2022/07/14 06:34:03;;;;;;;;;;;;;;;23.57;50.81;100960.75;4965991;28;8671;-77
2022/07/14 06:36:30;;;;;;;;;;;;;;;23.61;50.39;100961.59;4960475;28;7193;-76
2022/07/14 06:38:57;;;;;;;;;;;;;;;23.63;50.93;100950.28;4957073;28;7119;-77
2022/07/14 06:41:23;;;;;;;;;;;;;;;23.70;50.39;100953.78;4957852;28;7364;-77
2022/07/14 06:43:49;;;;;;;;;;;;;;;23.75;50.41;100951.16;4962302;28;7283;-77
2022/07/14 06:46:17;;;;;;;;;;;;;;;23.79;50.10;100945.09;4956940;28;9408;-77
2022/07/14 06:48:43;;;;;;;;;;;;;;;23.80;50.03;100954.69;4959608;28;6978;-77
2022/07/14 06:51:10;;;;;;;;;;;;;;;23.78;50.31;100959.03;4945364;28;7144;-77
2022/07/14 06:53:35;;;;;;;;;;;;;;;23.72;49.41;100960.75;4960684;28;6944;-76
2022/07/14 06:56:01;;;;;;;;;;;;;;;23.67;49.48;100956.38;4931693;28;7731;-76
2022/07/14 06:58:27;;;;;;;;;;;;;;;23.68;50.26;100963.38;4964515;28;7961;-76
2022/07/14 07:00:52;;;;;;;;;;;;;;;23.75;50.05;100964.25;4932358;28;8561;-77
2022/07/14 07:03:18;;;;;;;;;;;;;;;23.83;50.29;100966.03;4948414;28;6840;-77
2022/07/14 07:08:28;;;;;;;;;;;;;;;24.11;50.18;100953.00;4969758;28;6817;-77
2022/07/14 07:10:58;;;;;;;;;;;;;;;24.25;49.38;100953.00;4972842;28;7315;-77
2022/07/14 07:13:26;;;;;;;;;;;;;;;24.40;49.96;100951.25;4945734;28;7036;-77
2022/07/14 07:15:53;;;;;;;;;;;;;;;24.66;49.54;100945.97;4949414;28;7434;-77
2022/07/14 07:18:21;;;;;;;;;;;;;;;24.98;49.44;100946.78;4973164;28;6997;-77
2022/07/14 07:20:47;;;;;;;;;;;;;;;25.25;48.06;100937.09;4961403;28;7100;-77
2022/07/14 07:23:13;;;;;;;;;;;;;;;25.49;47.54;100936.09;4945691;28;6800;-77
2022/07/14 07:25:38;;;;;;;;;;;;;;;25.68;46.84;100933.38;4946621;28;8407;-77
2022/07/14 07:28:04;;;;;;;;;;;;;;;25.75;46.16;100940.34;4976649;28;7308;-77
2022/07/14 07:30:30;;;;;;;;;;;;;;;25.78;46.38;100940.31;4963107;28;6964;-77
2022/07/14 07:32:56;;;;;;;;;;;;;;;25.96;46.73;100938.44;4975262;28;6934;-78
2022/07/14 07:35:22;;;;;;;;;;;;;;;26.27;46.32;100932.97;4962793;28;7245;-77
2022/07/14 07:37:48;;;;;;;;;;;;;;;26.56;45.56;100933.59;4946871;28;7229;-77
2022/07/14 07:40:15;;;;;;;;;;;;;;;26.69;44.24;100927.31;4961894;28;7836;-77
2022/07/14 07:42:41;;;;;;;;;;;;;;;26.78;43.96;100933.34;4961896;28;6999;-77
2022/07/14 07:45:08;;;;;;;;;;;;;;;26.88;44.10;100929.75;4944834;28;6872;-77
2022/07/14 07:47:34;;;;;;;;;;;;;;;26.93;43.04;100935.81;4953148;28;6962;-77
2022/07/14 07:50:01;;;;;;;;;;;;;;;26.92;43.19;100936.72;4951363;28;6768;-76
2022/07/14 07:52:27;;;;;;;;;;;;;;;26.94;43.03;100929.66;4933471;28;8023;-77
2022/07/14 07:54:53;;;;;;;;;;;;;;;26.97;42.79;100927.03;4963118;28;6970;-77
2022/07/14 07:57:18;;;;;;;;;;;;;;;26.96;42.81;100933.16;4941874;28;8331;-77
2022/07/14 07:59:44;;;;;;;;;;;;;;;26.99;42.78;100927.88;4973382;28;8429;-77
2022/07/14 08:02:10;;;;;;;;;;;;;;;27.11;42.32;100929.47;4946695;28;7297;-77
2022/07/14 08:04:36;;;;;;;;;;;;;;;27.31;41.55;100918.69;4961211;28;6967;-77
2022/07/14 08:07:01;;;;;;;;;;;;;;;27.56;41.56;100913.09;4966260;28;6963;-77
2022/07/14 08:09:27;;;;;;;;;;;;;;;27.80;40.72;100907.50;4950307;28;7169;-77
2022/07/14 08:11:54;;;;;;;;;;;;;;;27.99;39.82;100902.78;4934437;28;8388;-77
2022/07/14 08:17:04;;;;;;;;;;;;;;;28.50;38.64;100895.78;4956446;28;6947;-78
2022/07/14 08:19:32;;;;;;;;;;;;;;;28.76;38.06;100903.16;4980027;28;7205;-77
2022/07/14 08:21:58;;;;;;;;;;;;;;;28.92;37.59;100898.47;4973954;28;7341;-77
2022/07/14 08:24:24;;;;;;;;;;;;;;;29.06;36.50;100889.38;4955112;28;7035;-77
2022/07/14 08:26:53;;;;;;;;;;;;;;;29.16;36.69;100898.00;4949880;28;6956;-77
2022/07/14 08:29:19;;;;;;;;;;;;;;;29.14;36.37;100891.88;4950396;28;7365;-77
2022/07/14 08:31:45;;;;;;;;;;;;;;;29.01;36.25;100880.72;4931311;28;8348;-77
2022/07/14 08:34:11;;;;;;;;;;;;;;;29.02;36.87;100882.47;4950478;28;8786;-77
2022/07/14 08:36:37;;;;;;;;;;;;;;;29.21;36.81;100882.91;4958926;28;6886;-77
2022/07/14 08:39:05;;;;;;;;;;;;;;;29.44;36.43;100874.50;4924244;28;7040;-77
2022/07/14 08:41:34;;;;;;;;;;;;;;;29.77;34.92;100877.25;4972069;28;6804;-77
2022/07/14 08:44:00;;;;;;;;;;;;;;;30.06;34.29;100867.72;4929461;28;6953;-77
2022/07/14 08:46:27;;;;;;;;;;;;;;;30.32;34.15;100860.84;4958908;28;6983;-77
2022/07/14 08:48:54;;;;;;;;;;;;;;;30.55;33.93;100864.66;4957357;28;6986;-78
2022/07/14 08:51:21;;;;;;;;;;;;;;;30.84;33.28;100855.03;4963203;28;7259;-77
2022/07/14 08:53:47;;;;;;;;;;;;;;;31.10;33.16;100850.75;4938783;28;7052;-77
2022/07/14 08:56:13;;;;;;;;;;;;;;;31.38;32.76;100859.59;4963727;28;6976;-77
2022/07/14 08:58:42;;;;;;;;;;;;;;;31.65;31.66;100857.84;4944906;28;6951;-77
2022/07/14 09:01:08;;;;;;;;;;;;;;;31.73;31.70;100858.44;4953872;28;6784;-77
2022/07/14 09:03:34;;;;;;;;;;;;;;;31.84;31.11;100854.59;4960251;28;7318;-77
2022/07/14 09:05:59;;;;;;;;;;;;;;;31.92;30.86;100855.19;4927381;28;6934;-77
2022/07/14 09:08:25;;;;;;;;;;;;;;;32.12;30.87;100848.34;4957647;28;6876;-77
2022/07/14 09:10:51;;;;;;;;;;;;;;;32.33;30.30;100848.47;4970323;28;6843;-77
2022/07/14 09:13:20;;;;;;;;;;;;;;;32.37;30.14;100852.81;4945235;28;6814;-77
2022/07/14 09:15:48;;;;;;;;;;;;;;;32.30;29.42;100856.56;4958581;28;6863;-77
2022/07/14 09:18:27;;;;;;;;;;;;;;;32.28;29.89;100852.19;4972147;28;7003;-77
2022/07/14 09:20:55;;;;;;;;;;;;;;;32.40;30.08;100850.91;4928451;28;7241;-78
2022/07/14 09:23:31;;;;;;;;;;;;;;;32.59;29.98;100854.66;4947606;28;7354;-77
2022/07/14 09:26:20;;;;;;;;;;;;;;;32.82;28.97;100844.00;4942179;28;8433;-77
2022/07/14 09:28:50;;;;;;;;;;;;;;;32.76;28.62;100838.97;4973325;28;6792;-77
2022/07/14 09:31:25;;;;;;;;;;;;;;;32.41;28.53;100849.09;4948216;28;7907;-77
2022/07/14 09:34:06;;;;;;;;;;;;;;;32.10;28.86;100858.13;4964043;28;8436;-78
2022/07/14 09:36:37;;;;;;;;;;;;;;;31.82;28.65;100865.25;4954599;28;7138;-77
2022/07/14 09:39:09;;;;;;;;;;;;;;;31.70;28.96;100862.97;4967291;28;8432;-78
2022/07/14 09:41:49;;;;;;;;;;;;;;;31.91;28.75;100861.41;4941403;28;7318;-77
2022/07/14 09:44:18;;;;;;;;;;;;;;;32.30;27.96;100864.50;4970821;28;7194;-77
2022/07/14 09:46:57;;;;;;;;;;;;;;;32.65;27.61;100873.84;4964089;28;7259;-78
2022/07/14 09:49:30;;;;;;;;;;;;;;;32.91;26.94;100861.38;4980741;28;6788;-77
2022/07/14 09:52:04;;;;;;;;;;;;;;;33.28;26.68;100863.53;4948561;28;6840;-78
2022/07/14 09:54:47;;;;;;;;;;;;;;;33.41;26.13;100870.06;4968173;28;6890;-78
2022/07/14 09:57:12;;;;;;;;;;;;;;;33.26;26.42;100868.91;4970162;28;7103;-77
2022/07/14 09:59:52;;;;;;;;;;;;;;;33.24;26.42;100868.13;4962283;28;7175;-78
2022/07/14 10:02:26;;;;;;;;;;;;;;;33.13;26.02;100867.66;4962217;28;7793;-78
2022/07/14 10:04:54;;;;;;;;;;;;;;;32.98;26.00;100856.72;4979152;28;7211;-78
2022/07/14 10:07:24;;;;;;;;;;;;;;;32.90;25.72;100853.47;4984417;28;6932;-79
2022/07/14 10:10:21;;;;;;;;;;;;;;;32.64;26.09;100858.84;4964765;28;7853;-78
2022/07/14 10:12:48;;;;;;;;;;;;;;;32.58;26.42;100859.06;4940024;28;7182;-78
2022/07/14 10:15:14;;;;;;;;;;;;;;;32.75;26.16;100868.19;4974481;28;7105;-77
2022/07/14 10:17:42;;;;;;;;;;;;;;;32.93;25.54;100861.34;4952429;28;7041;-77
2022/07/14 10:20:12;;;;;;;;;;;;;;;33.21;25.47;100854.94;4977714;28;7157;-78
2022/07/14 10:22:39;;;;;;;;;;;;;;;33.60;25.18;100854.25;4960131;28;7207;-77
2022/07/14 10:25:07;;;;;;;;;;;;;;;34.04;24.69;100852.47;4961129;28;8133;-78
2022/07/14 10:27:37;;;;;;;;;;;;;;;34.53;23.76;100843.25;4976605;28;7004;-78
2022/07/14 10:30:03;;;;;;;;;;;;;;;35.03;23.56;100845.31;4967384;28;8580;-77
2022/07/14 10:32:35;;;;;;;;;;;;;;;35.24;22.03;100857.69;4948853;28;7817;-77
2022/07/14 10:35:48;;;;;;;;;;;;;;;35.23;21.99;100842.66;4950477;28;6895;-78
2022/07/14 10:38:42;;;;;;;;;;;;;;;35.28;22.31;100849.47;4923933;28;7007;-78
2022/07/14 10:42:01;;;;;;;;;;;;;;;35.50;22.09;100840.41;4962805;28;7027;-78
2022/07/14 10:44:34;;;;;;;;;;;;;;;35.73;21.73;100838.41;4953414;28;7122;-79
2022/07/14 10:47:10;;;;;;;;;;;;;;;35.79;21.64;100843.41;4950151;28;7221;-78
2022/07/14 10:50:12;;;;;;;;;;;;;;;35.87;21.62;100832.34;4977840;28;7020;-78
2022/07/14 10:52:49;;;;;;;;;;;;;;;35.99;21.83;100839.72;4961004;28;7016;-80
2022/07/14 10:55:36;;;;;;;;;;;;;;;36.23;22.11;100843.88;4951874;28;7246;-79
2022/07/14 10:58:03;;;;;;;;;;;;;;;36.42;21.71;100839.28;4968326;28;6991;-78
2022/07/14 11:00:40;;;;;;;;;;;;;;;36.65;21.37;100833.63;4950210;28;6882;-78
2022/07/14 11:03:20;;;;;;;;;;;;;;;36.55;20.61;100841.25;4943640;28;8383;-78
2022/07/14 11:06:09;;;;;;;;;;;;;;;36.04;20.61;100834.16;4960091;28;7195;-77
2022/07/14 11:08:38;;;;;;;;;;;;;;;35.73;21.17;100839.28;4962774;28;7149;-78
2022/07/14 11:11:08;;;;;;;;;;;;;;;35.54;21.06;100831.34;4943529;28;7032;-78
2022/07/14 11:14:07;;;;;;;;;;;;;;;35.38;21.54;100836.56;4935737;28;6855;-79
2022/07/14 11:16:57;;;;;;;;;;;;;;;35.31;21.97;100848.47;4961416;28;7186;-78
2022/07/14 11:19:35;;;;;;;;;;;;;;;35.45;22.39;100848.63;4941128;28;6806;-78
2022/07/14 11:22:21;;;;;;;;;;;;;;;35.84;21.38;100840.53;4959572;28;7016;-78
2022/07/14 11:24:59;;;;;;;;;;;;;;;36.27;21.93;100837.41;4931678;28;6999;-78
2022/07/14 11:27:36;;;;;;;;;;;;;;;36.60;21.31;100836.53;4934031;28;8109;-77
2022/07/14 11:30:25;;;;;;;;;;;;;;;36.62;20.51;100845.34;4959630;28;7188;-77
2022/07/14 11:33:07;;;;;;;;;;;;;;;36.38;19.78;100840.38;4960688;28;13152;-78
2022/07/14 11:38:40;;;;;;;;;;;;;;;35.97;20.77;100854.06;4949089;28;6800;-77
2022/07/14 11:41:12;;;;;;;;;;;;;;;36.03;20.40;100848.44;4962874;28;7404;-78
2022/07/14 11:43:50;;;;;;;;;;;;;;;36.22;21.24;100860.81;4946484;28;6998;-78
2022/07/14 11:46:22;;;;;;;;;;;;;;;36.62;20.84;100856.03;4959695;28;7197;-78
2022/07/14 11:48:53;;;;;;;;;;;;;;;37.01;20.43;100847.69;4950473;28;6996;-79
2022/07/14 11:51:24;;;;;;;;;;;;;;;37.30;20.22;100845.16;4975048;28;6808;-78
2022/07/14 11:54:01;;;;;;;;;;;;;;;37.35;20.18;100845.75;4962941;28;6804;-78
2022/07/14 11:56:30;;;;;;;;;;;;;;;36.76;19.45;100841.91;4930030;28;7004;-78
2022/07/14 11:59:05;;;;;;;;;;;;;;;36.05;20.38;100846.53;4962427;28;7283;-78
2022/07/14 12:01:38;;;;;;;;;;;;;;;35.68;20.94;100848.44;4967140;28;7138;-79
2022/07/14 12:04:17;;;;;;;;;;;;;;;35.12;20.46;100833.41;4943755;28;7225;-79
2022/07/14 12:06:47;;;;;;;;;;;;;;;34.48;21.05;100846.97;4946297;28;7373;-78
2022/07/14 12:09:26;;;;;;;;;;;;;;;34.09;21.36;100846.94;4975262;28;6804;-78
2022/07/14 12:11:53;;;;;;;;;;;;;;;34.02;21.53;100839.22;4973896;28;6827;-78
2022/07/14 12:14:19;;;;;;;;;;;;;;;34.18;21.65;100843.88;4973437;28;6992;-78
2022/07/14 12:16:45;;;;;;;;;;;;;;;34.45;21.65;100847.06;4973502;28;6845;-78
2022/07/14 12:19:12;;;;;;;;;;;;;;;34.60;21.00;100834.06;4950837;28;7047;-78
2022/07/14 12:21:39;;;;;;;;;;;;;;;34.73;21.04;100835.19;4945141;28;7204;-78
2022/07/14 12:24:10;;;;;;;;;;;;;;;35.02;21.42;100835.59;4946218;28;6903;-79
2022/07/14 12:26:37;;;;;;;;;;;;;;;35.40;21.19;100823.16;4962853;28;7267;-79
2022/07/14 12:29:05;;;;;;;;;;;;;;;35.73;21.15;100830.41;4950400;28;7283;-78
2022/07/14 12:31:39;;;;;;;;;;;;;;;36.03;20.25;100832.44;4969641;28;6941;-78
2022/07/14 12:34:05;;;;;;;;;;;;;;;36.20;20.55;100825.34;4946145;28;6900;-78
2022/07/14 12:36:32;;;;;;;;;;;;;;;36.41;19.92;100818.00;4956681;28;8456;-78
2022/07/14 12:39:02;;;;;;;;;;;;;;;36.50;20.04;100820.16;4958001;28;6971;-79
2022/07/14 12:41:29;;;;;;;;;;;;;;;36.49;20.60;100823.78;4974445;28;7096;-78
2022/07/14 12:43:56;;;;;;;;;;;;;;;36.54;20.02;100826.19;4972485;28;7197;-78
2022/07/14 12:46:23;;;;;;;;;;;;;;;36.64;19.86;100824.75;4970343;28;7818;-78
2022/07/14 12:48:52;;;;;;;;;;;;;;;36.64;19.67;100832.78;4960418;28;6964;-78
2022/07/14 12:51:33;;;;;;;;;;;;;;;36.54;20.04;100826.19;4941505;28;7356;-78
2022/07/14 12:54:19;;;;;;;;;;;;;;;36.36;20.20;100833.38;4950559;28;7048;-78
2022/07/14 12:56:53;;;;;;;;;;;;;;;36.23;19.87;100835.88;4947064;28;6803;-78
2022/07/14 12:59:24;;;;;;;;;;;;;;;36.09;20.82;100848.13;4976168;28;6983;-78
2022/07/14 13:02:03;;;;;;;;;;;;;;;35.84;20.77;100838.72;4957429;28;7257;-79
2022/07/14 13:04:28;;;;;;;;;;;;;;;35.56;20.96;100832.16;4963417;28;7143;-78
2022/07/14 13:06:55;;;;;;;;;;;;;;;35.29;20.89;100835.22;4960466;28;7083;-78